sensor_id;sensor_type;location;lat;lon;timestamp;P1;durP1;ratioP1;P2;durP2;ratioP2
583;SDS011;27024;54.068;12.116;2024-01-07T00:01:28;3.22;;;0.82;;
583;SDS011;27024;54.068;12.116;2024-01-07T00:03:55;3.33;;;1.00;;
583;SDS011;27024;54.068;12.116;2024-01-07T00:06:22;5.10;;;1.00;;
583;SDS011;27024;54.068;12.116;2024-01-07T00:08:49;3.53;;;1.10;;
583;SDS011;27024;54.068;12.116;2024-01-07T00:11:17;2.38;;;1.20;;
583;SDS011;27024;54.068;12.116;2024-01-07T00:13:45;2.58;;;1.00;;
583;SDS011;27024;54.068;12.116;2024-01-07T00:16:12;2.70;;;1.10;;
583;SDS011;27024;54.068;12.116;2024-01-07T00:18:39;4.22;;;1.25;;
583;SDS011;27024;54.068;12.116;2024-01-07T00:21:07;3.55;;;0.82;;
583;SDS011;27024;54.068;12.116;2024-01-07T00:23:34;5.50;;;1.00;;
583;SDS011;27024;54.068;12.116;2024-01-07T00:26:02;3.08;;;0.90;;
583;SDS011;27024;54.068;12.116;2024-01-07T00:28:30;3.00;;;0.75;;
583;SDS011;27024;54.068;12.116;2024-01-07T00:30:57;5.75;;;1.02;;
583;SDS011;27024;54.068;12.116;2024-01-07T00:33:24;3.90;;;1.02;;
583;SDS011;27024;54.068;12.116;2024-01-07T00:35:52;3.83;;;1.52;;
583;SDS011;27024;54.068;12.116;2024-01-07T00:38:19;5.10;;;1.17;;
583;SDS011;27024;54.068;12.116;2024-01-07T00:40:46;3.70;;;1.27;;
583;SDS011;27024;54.068;12.116;2024-01-07T00:43:13;3.22;;;0.90;;
583;SDS011;27024;54.068;12.116;2024-01-07T00:45:41;4.20;;;0.80;;
583;SDS011;27024;54.068;12.116;2024-01-07T00:48:08;2.58;;;0.68;;
583;SDS011;27024;54.068;12.116;2024-01-07T00:50:35;7.43;;;0.88;;
583;SDS011;27024;54.068;12.116;2024-01-07T00:53:02;3.70;;;1.10;;
583;SDS011;27024;54.068;12.116;2024-01-07T00:55:29;3.95;;;0.70;;
583;SDS011;27024;54.068;12.116;2024-01-07T00:57:57;2.22;;;0.80;;
583;SDS011;27024;54.068;12.116;2024-01-07T01:00:24;2.83;;;0.75;;
583;SDS011;27024;54.068;12.116;2024-01-07T01:02:51;5.45;;;0.82;;
583;SDS011;27024;54.068;12.116;2024-01-07T01:05:19;3.63;;;1.05;;
583;SDS011;27024;54.068;12.116;2024-01-07T01:07:46;4.20;;;1.55;;
583;SDS011;27024;54.068;12.116;2024-01-07T01:10:14;3.63;;;1.42;;
583;SDS011;27024;54.068;12.116;2024-01-07T01:12:44;2.63;;;0.85;;
583;SDS011;27024;54.068;12.116;2024-01-07T01:15:11;5.30;;;1.20;;
583;SDS011;27024;54.068;12.116;2024-01-07T01:17:38;3.17;;;0.60;;
583;SDS011;27024;54.068;12.116;2024-01-07T01:20:05;2.13;;;0.70;;
583;SDS011;27024;54.068;12.116;2024-01-07T01:22:33;3.67;;;1.25;;
583;SDS011;27024;54.068;12.116;2024-01-07T01:25:01;2.97;;;0.93;;
583;SDS011;27024;54.068;12.116;2024-01-07T01:27:30;4.15;;;0.95;;
583;SDS011;27024;54.068;12.116;2024-01-07T01:29:57;3.05;;;0.85;;
583;SDS011;27024;54.068;12.116;2024-01-07T01:32:24;2.70;;;1.00;;
583;SDS011;27024;54.068;12.116;2024-01-07T01:34:52;2.83;;;0.80;;
583;SDS011;27024;54.068;12.116;2024-01-07T01:37:19;2.13;;;0.90;;
583;SDS011;27024;54.068;12.116;2024-01-07T01:39:46;3.20;;;0.95;;
583;SDS011;27024;54.068;12.116;2024-01-07T01:42:14;2.83;;;1.00;;
583;SDS011;27024;54.068;12.116;2024-01-07T01:44:42;4.97;;;0.95;;
583;SDS011;27024;54.068;12.116;2024-01-07T01:47:09;2.67;;;1.05;;
583;SDS011;27024;54.068;12.116;2024-01-07T01:49:38;4.13;;;0.95;;
583;SDS011;27024;54.068;12.116;2024-01-07T01:52:06;4.38;;;0.90;;
583;SDS011;27024;54.068;12.116;2024-01-07T01:54:34;4.20;;;1.13;;
583;SDS011;27024;54.068;12.116;2024-01-07T01:57:04;3.05;;;1.00;;
583;SDS011;27024;54.068;12.116;2024-01-07T01:59:33;3.30;;;1.00;;
583;SDS011;27024;54.068;12.116;2024-01-07T02:02:01;3.10;;;1.10;;
583;SDS011;27024;54.068;12.116;2024-01-07T02:04:28;2.83;;;0.63;;
583;SDS011;27024;54.068;12.116;2024-01-07T02:06:55;4.25;;;1.17;;
583;SDS011;27024;54.068;12.116;2024-01-07T02:09:23;4.28;;;0.80;;
583;SDS011;27024;54.068;12.116;2024-01-07T02:12:00;3.63;;;1.02;;
583;SDS011;27024;54.068;12.116;2024-01-07T02:14:28;5.03;;;0.88;;
583;SDS011;27024;54.068;12.116;2024-01-07T02:16:55;2.03;;;0.50;;
583;SDS011;27024;54.068;12.116;2024-01-07T02:19:23;3.22;;;0.68;;
583;SDS011;27024;54.068;12.116;2024-01-07T02:21:50;1.48;;;0.55;;
583;SDS011;27024;54.068;12.116;2024-01-07T02:24:18;4.20;;;0.73;;
583;SDS011;27024;54.068;12.116;2024-01-07T02:26:46;1.75;;;0.55;;
583;SDS011;27024;54.068;12.116;2024-01-07T02:29:13;2.97;;;0.47;;
583;SDS011;27024;54.068;12.116;2024-01-07T02:31:40;2.28;;;0.50;;
583;SDS011;27024;54.068;12.116;2024-01-07T02:34:09;1.70;;;0.40;;
583;SDS011;27024;54.068;12.116;2024-01-07T02:36:37;2.03;;;0.70;;
583;SDS011;27024;54.068;12.116;2024-01-07T02:39:04;2.92;;;0.45;;
583;SDS011;27024;54.068;12.116;2024-01-07T02:41:32;1.48;;;0.20;;
583;SDS011;27024;54.068;12.116;2024-01-07T02:43:59;2.60;;;0.40;;
583;SDS011;27024;54.068;12.116;2024-01-07T02:46:26;2.85;;;0.52;;
583;SDS011;27024;54.068;12.116;2024-01-07T02:48:53;2.28;;;0.40;;
583;SDS011;27024;54.068;12.116;2024-01-07T02:51:21;1.92;;;0.30;;
583;SDS011;27024;54.068;12.116;2024-01-07T02:53:48;1.15;;;0.40;;
583;SDS011;27024;54.068;12.116;2024-01-07T02:56:15;1.55;;;0.30;;
583;SDS011;27024;54.068;12.116;2024-01-07T02:58:42;2.92;;;0.38;;
583;SDS011;27024;54.068;12.116;2024-01-07T03:01:10;0.70;;;0.25;;
583;SDS011;27024;54.068;12.116;2024-01-07T03:03:39;4.15;;;0.50;;
583;SDS011;27024;54.068;12.116;2024-01-07T03:06:07;1.95;;;0.35;;
583;SDS011;27024;54.068;12.116;2024-01-07T03:08:34;1.80;;;0.38;;
583;SDS011;27024;54.068;12.116;2024-01-07T03:11:05;1.05;;;0.43;;
583;SDS011;27024;54.068;12.116;2024-01-07T03:13:33;1.00;;;0.22;;
583;SDS011;27024;54.068;12.116;2024-01-07T03:16:00;0.77;;;0.22;;
583;SDS011;27024;54.068;12.116;2024-01-07T03:18:27;1.55;;;0.40;;
583;SDS011;27024;54.068;12.116;2024-01-07T03:20:57;2.47;;;0.30;;
583;SDS011;27024;54.068;12.116;2024-01-07T03:23:24;3.00;;;0.50;;
583;SDS011;27024;54.068;12.116;2024-01-07T03:25:51;2.15;;;0.20;;
583;SDS011;27024;54.068;12.116;2024-01-07T03:28:18;2.58;;;0.43;;
583;SDS011;27024;54.068;12.116;2024-01-07T03:30:46;2.95;;;0.30;;
583;SDS011;27024;54.068;12.116;2024-01-07T03:33:13;3.40;;;0.82;;
583;SDS011;27024;54.068;12.116;2024-01-07T03:35:40;1.17;;;0.20;;
583;SDS011;27024;54.068;12.116;2024-01-07T03:38:07;2.92;;;0.30;;
583;SDS011;27024;54.068;12.116;2024-01-07T03:40:34;1.55;;;0.20;;
583;SDS011;27024;54.068;12.116;2024-01-07T03:43:01;2.22;;;0.20;;
583;SDS011;27024;54.068;12.116;2024-01-07T03:45:28;1.05;;;0.55;;
583;SDS011;27024;54.068;12.116;2024-01-07T03:47:56;1.80;;;0.25;;
583;SDS011;27024;54.068;12.116;2024-01-07T03:50:24;1.40;;;0.40;;
583;SDS011;27024;54.068;12.116;2024-01-07T03:52:51;1.38;;;0.50;;
583;SDS011;27024;54.068;12.116;2024-01-07T03:55:18;0.50;;;0.13;;
583;SDS011;27024;54.068;12.116;2024-01-07T03:57:45;1.45;;;0.30;;
583;SDS011;27024;54.068;12.116;2024-01-07T04:00:13;0.93;;;0.35;;
583;SDS011;27024;54.068;12.116;2024-01-07T04:02:40;1.13;;;0.20;;
583;SDS011;27024;54.068;12.116;2024-01-07T04:05:08;1.63;;;0.22;;
583;SDS011;27024;54.068;12.116;2024-01-07T04:07:36;2.10;;;0.30;;
583;SDS011;27024;54.068;12.116;2024-01-07T04:10:04;1.75;;;0.30;;
583;SDS011;27024;54.068;12.116;2024-01-07T04:12:32;1.25;;;0.20;;
583;SDS011;27024;54.068;12.116;2024-01-07T04:14:59;0.88;;;0.32;;
583;SDS011;27024;54.068;12.116;2024-01-07T04:17:28;1.20;;;0.22;;
583;SDS011;27024;54.068;12.116;2024-01-07T04:19:55;1.42;;;0.52;;
583;SDS011;27024;54.068;12.116;2024-01-07T04:22:22;2.05;;;0.55;;
583;SDS011;27024;54.068;12.116;2024-01-07T04:24:49;1.92;;;0.30;;
583;SDS011;27024;54.068;12.116;2024-01-07T04:27:17;1.77;;;0.40;;
583;SDS011;27024;54.068;12.116;2024-01-07T04:29:43;1.80;;;0.30;;
583;SDS011;27024;54.068;12.116;2024-01-07T04:32:11;2.63;;;0.30;;
583;SDS011;27024;54.068;12.116;2024-01-07T04:34:38;0.85;;;0.35;;
583;SDS011;27024;54.068;12.116;2024-01-07T04:37:05;1.48;;;0.30;;
583;SDS011;27024;54.068;12.116;2024-01-07T04:39:33;1.27;;;0.40;;
583;SDS011;27024;54.068;12.116;2024-01-07T04:42:00;3.10;;;0.50;;
583;SDS011;27024;54.068;12.116;2024-01-07T04:44:28;1.35;;;0.45;;
583;SDS011;27024;54.068;12.116;2024-01-07T04:46:55;2.90;;;0.43;;
583;SDS011;27024;54.068;12.116;2024-01-07T04:49:22;1.75;;;0.40;;
583;SDS011;27024;54.068;12.116;2024-01-07T04:51:50;1.80;;;0.43;;
583;SDS011;27024;54.068;12.116;2024-01-07T04:54:17;1.80;;;0.30;;
583;SDS011;27024;54.068;12.116;2024-01-07T04:56:45;1.80;;;0.30;;
583;SDS011;27024;54.068;12.116;2024-01-07T04:59:12;1.73;;;0.40;;
583;SDS011;27024;54.068;12.116;2024-01-07T05:01:40;1.08;;;0.30;;
583;SDS011;27024;54.068;12.116;2024-01-07T05:04:07;3.30;;;0.55;;
583;SDS011;27024;54.068;12.116;2024-01-07T05:06:34;3.53;;;0.68;;
583;SDS011;27024;54.068;12.116;2024-01-07T05:09:05;3.15;;;0.50;;
583;SDS011;27024;54.068;12.116;2024-01-07T05:11:32;3.42;;;0.77;;
583;SDS011;27024;54.068;12.116;2024-01-07T05:13:59;2.38;;;0.47;;
583;SDS011;27024;54.068;12.116;2024-01-07T05:16:27;2.78;;;0.63;;
583;SDS011;27024;54.068;12.116;2024-01-07T05:18:54;3.03;;;0.68;;
583;SDS011;27024;54.068;12.116;2024-01-07T05:21:21;2.50;;;0.52;;
583;SDS011;27024;54.068;12.116;2024-01-07T05:23:48;3.75;;;0.70;;
583;SDS011;27024;54.068;12.116;2024-01-07T05:26:16;2.95;;;1.30;;
583;SDS011;27024;54.068;12.116;2024-01-07T05:28:43;1.58;;;0.63;;
583;SDS011;27024;54.068;12.116;2024-01-07T05:31:14;2.85;;;0.98;;
583;SDS011;27024;54.068;12.116;2024-01-07T05:33:43;5.10;;;0.98;;
583;SDS011;27024;54.068;12.116;2024-01-07T05:36:11;1.98;;;0.57;;
583;SDS011;27024;54.068;12.116;2024-01-07T05:38:38;2.20;;;0.80;;
583;SDS011;27024;54.068;12.116;2024-01-07T05:41:06;3.28;;;1.00;;
583;SDS011;27024;54.068;12.116;2024-01-07T05:43:33;4.07;;;1.10;;
583;SDS011;27024;54.068;12.116;2024-01-07T05:46:01;2.50;;;0.90;;
583;SDS011;27024;54.068;12.116;2024-01-07T05:48:35;2.55;;;1.35;;
583;SDS011;27024;54.068;12.116;2024-01-07T05:51:08;5.85;;;1.10;;
583;SDS011;27024;54.068;12.116;2024-01-07T05:53:36;4.10;;;1.50;;
583;SDS011;27024;54.068;12.116;2024-01-07T05:56:03;4.25;;;1.13;;
583;SDS011;27024;54.068;12.116;2024-01-07T05:58:31;6.85;;;1.20;;
583;SDS011;27024;54.068;12.116;2024-01-07T06:00:58;3.35;;;1.05;;
583;SDS011;27024;54.068;12.116;2024-01-07T06:03:26;3.58;;;1.38;;
583;SDS011;27024;54.068;12.116;2024-01-07T06:05:53;3.03;;;1.00;;
583;SDS011;27024;54.068;12.116;2024-01-07T06:08:21;3.78;;;1.27;;
583;SDS011;27024;54.068;12.116;2024-01-07T06:10:48;2.67;;;1.08;;
583;SDS011;27024;54.068;12.116;2024-01-07T06:13:15;3.47;;;0.95;;
583;SDS011;27024;54.068;12.116;2024-01-07T06:15:42;2.97;;;1.00;;
583;SDS011;27024;54.068;12.116;2024-01-07T06:18:09;3.63;;;1.00;;
583;SDS011;27024;54.068;12.116;2024-01-07T06:20:37;2.30;;;0.90;;
583;SDS011;27024;54.068;12.116;2024-01-07T06:23:04;7.15;;;1.15;;
583;SDS011;27024;54.068;12.116;2024-01-07T06:25:32;2.88;;;0.90;;
583;SDS011;27024;54.068;12.116;2024-01-07T06:28:00;3.67;;;1.15;;
583;SDS011;27024;54.068;12.116;2024-01-07T06:30:27;5.65;;;1.20;;
583;SDS011;27024;54.068;12.116;2024-01-07T06:32:55;2.58;;;0.98;;
583;SDS011;27024;54.068;12.116;2024-01-07T06:35:22;5.03;;;0.98;;
583;SDS011;27024;54.068;12.116;2024-01-07T06:37:50;4.22;;;1.25;;
583;SDS011;27024;54.068;12.116;2024-01-07T06:40:18;3.63;;;1.30;;
583;SDS011;27024;54.068;12.116;2024-01-07T06:42:46;5.10;;;1.50;;
583;SDS011;27024;54.068;12.116;2024-01-07T06:45:16;3.08;;;0.80;;
583;SDS011;27024;54.068;12.116;2024-01-07T06:47:43;5.20;;;1.15;;
583;SDS011;27024;54.068;12.116;2024-01-07T06:50:11;3.38;;;1.00;;
583;SDS011;27024;54.068;12.116;2024-01-07T06:52:38;3.33;;;1.30;;
583;SDS011;27024;54.068;12.116;2024-01-07T06:55:05;4.93;;;1.20;;
583;SDS011;27024;54.068;12.116;2024-01-07T06:57:33;4.95;;;1.15;;
583;SDS011;27024;54.068;12.116;2024-01-07T07:00:00;3.38;;;1.08;;
583;SDS011;27024;54.068;12.116;2024-01-07T07:02:28;3.58;;;0.93;;
583;SDS011;27024;54.068;12.116;2024-01-07T07:04:55;2.85;;;0.93;;
583;SDS011;27024;54.068;12.116;2024-01-07T07:07:23;2.50;;;1.25;;
583;SDS011;27024;54.068;12.116;2024-01-07T07:09:50;3.95;;;1.20;;
583;SDS011;27024;54.068;12.116;2024-01-07T07:12:18;2.95;;;0.95;;
583;SDS011;27024;54.068;12.116;2024-01-07T07:14:46;4.38;;;1.20;;
583;SDS011;27024;54.068;12.116;2024-01-07T07:17:13;3.67;;;1.25;;
583;SDS011;27024;54.068;12.116;2024-01-07T07:19:42;3.47;;;1.00;;
583;SDS011;27024;54.068;12.116;2024-01-07T07:22:12;5.63;;;1.67;;
583;SDS011;27024;54.068;12.116;2024-01-07T07:24:42;3.67;;;1.00;;
583;SDS011;27024;54.068;12.116;2024-01-07T07:27:13;2.78;;;1.00;;
583;SDS011;27024;54.068;12.116;2024-01-07T07:29:40;3.13;;;0.98;;
583;SDS011;27024;54.068;12.116;2024-01-07T07:32:07;1.95;;;0.80;;
583;SDS011;27024;54.068;12.116;2024-01-07T07:34:34;2.53;;;1.08;;
583;SDS011;27024;54.068;12.116;2024-01-07T07:37:02;3.72;;;1.40;;
583;SDS011;27024;54.068;12.116;2024-01-07T07:39:31;2.55;;;1.10;;
583;SDS011;27024;54.068;12.116;2024-01-07T07:41:58;2.08;;;0.80;;
583;SDS011;27024;54.068;12.116;2024-01-07T07:44:26;4.22;;;0.95;;
583;SDS011;27024;54.068;12.116;2024-01-07T07:46:53;3.00;;;1.00;;
583;SDS011;27024;54.068;12.116;2024-01-07T07:49:20;3.70;;;1.17;;
583;SDS011;27024;54.068;12.116;2024-01-07T07:51:50;4.43;;;1.17;;
583;SDS011;27024;54.068;12.116;2024-01-07T07:54:18;3.78;;;1.25;;
583;SDS011;27024;54.068;12.116;2024-01-07T07:56:45;4.50;;;1.10;;
583;SDS011;27024;54.068;12.116;2024-01-07T07:59:12;3.92;;;1.05;;
583;SDS011;27024;54.068;12.116;2024-01-07T08:01:40;3.05;;;0.75;;
583;SDS011;27024;54.068;12.116;2024-01-07T08:04:07;4.15;;;1.27;;
583;SDS011;27024;54.068;12.116;2024-01-07T08:06:36;8.23;;;1.45;;
583;SDS011;27024;54.068;12.116;2024-01-07T08:09:03;3.58;;;1.23;;
583;SDS011;27024;54.068;12.116;2024-01-07T08:11:31;3.20;;;0.93;;
583;SDS011;27024;54.068;12.116;2024-01-07T08:13:58;3.70;;;1.35;;
583;SDS011;27024;54.068;12.116;2024-01-07T08:16:25;6.78;;;1.40;;
583;SDS011;27024;54.068;12.116;2024-01-07T08:18:52;7.05;;;1.55;;
583;SDS011;27024;54.068;12.116;2024-01-07T08:21:23;4.07;;;1.40;;
583;SDS011;27024;54.068;12.116;2024-01-07T08:23:51;4.78;;;1.40;;
583;SDS011;27024;54.068;12.116;2024-01-07T08:26:20;5.00;;;1.25;;
583;SDS011;27024;54.068;12.116;2024-01-07T08:28:48;5.53;;;1.10;;
583;SDS011;27024;54.068;12.116;2024-01-07T08:31:16;9.80;;;1.30;;
583;SDS011;27024;54.068;12.116;2024-01-07T08:33:43;3.58;;;1.10;;
583;SDS011;27024;54.068;12.116;2024-01-07T08:36:11;2.40;;;0.85;;
583;SDS011;27024;54.068;12.116;2024-01-07T08:38:38;2.00;;;0.63;;
583;SDS011;27024;54.068;12.116;2024-01-07T08:41:06;2.30;;;0.70;;
583;SDS011;27024;54.068;12.116;2024-01-07T08:43:33;2.67;;;0.88;;
583;SDS011;27024;54.068;12.116;2024-01-07T08:46:02;6.25;;;0.93;;
583;SDS011;27024;54.068;12.116;2024-01-07T08:48:31;3.05;;;0.60;;
583;SDS011;27024;54.068;12.116;2024-01-07T08:50:58;2.95;;;0.70;;
583;SDS011;27024;54.068;12.116;2024-01-07T08:53:26;2.10;;;0.70;;
583;SDS011;27024;54.068;12.116;2024-01-07T08:55:53;4.00;;;0.93;;
583;SDS011;27024;54.068;12.116;2024-01-07T08:58:20;2.97;;;0.70;;
583;SDS011;27024;54.068;12.116;2024-01-07T09:00:48;1.88;;;0.60;;
583;SDS011;27024;54.068;12.116;2024-01-07T09:03:15;1.70;;;0.57;;
583;SDS011;27024;54.068;12.116;2024-01-07T09:05:42;2.67;;;0.77;;
583;SDS011;27024;54.068;12.116;2024-01-07T09:08:10;2.20;;;0.63;;
583;SDS011;27024;54.068;12.116;2024-01-07T09:10:38;3.72;;;0.70;;
583;SDS011;27024;54.068;12.116;2024-01-07T09:13:09;2.35;;;0.60;;
583;SDS011;27024;54.068;12.116;2024-01-07T09:15:37;2.08;;;0.75;;
583;SDS011;27024;54.068;12.116;2024-01-07T09:18:05;2.13;;;0.60;;
583;SDS011;27024;54.068;12.116;2024-01-07T09:20:33;4.07;;;0.60;;
583;SDS011;27024;54.068;12.116;2024-01-07T09:23:01;2.20;;;0.60;;
583;SDS011;27024;54.068;12.116;2024-01-07T09:25:28;1.52;;;0.47;;
583;SDS011;27024;54.068;12.116;2024-01-07T09:27:56;2.70;;;0.57;;
583;SDS011;27024;54.068;12.116;2024-01-07T09:30:24;4.30;;;0.73;;
583;SDS011;27024;54.068;12.116;2024-01-07T09:32:51;2.08;;;0.60;;
583;SDS011;27024;54.068;12.116;2024-01-07T09:35:20;3.15;;;0.60;;
583;SDS011;27024;54.068;12.116;2024-01-07T09:37:47;1.77;;;0.50;;
583;SDS011;27024;54.068;12.116;2024-01-07T09:40:17;1.60;;;0.60;;
583;SDS011;27024;54.068;12.116;2024-01-07T09:45:14;2.00;;;0.50;;
583;SDS011;27024;54.068;12.116;2024-01-07T09:47:42;2.10;;;0.60;;
583;SDS011;27024;54.068;12.116;2024-01-07T09:50:12;7.35;;;1.70;;
583;SDS011;27024;54.068;12.116;2024-01-07T09:52:42;2.95;;;0.82;;
583;SDS011;27024;54.068;12.116;2024-01-07T09:55:12;2.00;;;0.63;;
583;SDS011;27024;54.068;12.116;2024-01-07T09:57:53;2.92;;;0.55;;
583;SDS011;27024;54.068;12.116;2024-01-07T10:00:21;2.42;;;0.98;;
583;SDS011;27024;54.068;12.116;2024-01-07T10:02:48;1.90;;;0.77;;
583;SDS011;27024;54.068;12.116;2024-01-07T10:05:15;1.67;;;0.63;;
583;SDS011;27024;54.068;12.116;2024-01-07T10:07:44;2.38;;;0.52;;
583;SDS011;27024;54.068;12.116;2024-01-07T10:10:12;2.58;;;0.60;;
583;SDS011;27024;54.068;12.116;2024-01-07T10:12:41;1.50;;;0.60;;
583;SDS011;27024;54.068;12.116;2024-01-07T10:15:08;2.97;;;0.57;;
583;SDS011;27024;54.068;12.116;2024-01-07T10:17:35;1.90;;;0.63;;
583;SDS011;27024;54.068;12.116;2024-01-07T10:20:04;2.72;;;0.80;;
583;SDS011;27024;54.068;12.116;2024-01-07T10:22:34;3.85;;;0.60;;
583;SDS011;27024;54.068;12.116;2024-01-07T10:25:01;1.65;;;0.57;;
583;SDS011;27024;54.068;12.116;2024-01-07T10:27:30;2.38;;;0.90;;
583;SDS011;27024;54.068;12.116;2024-01-07T10:30:04;2.80;;;0.90;;
583;SDS011;27024;54.068;12.116;2024-01-07T10:32:37;3.65;;;0.73;;
583;SDS011;27024;54.068;12.116;2024-01-07T10:35:11;1.88;;;0.50;;
583;SDS011;27024;54.068;12.116;2024-01-07T10:37:44;2.05;;;0.73;;
583;SDS011;27024;54.068;12.116;2024-01-07T10:40:12;2.85;;;0.85;;
583;SDS011;27024;54.068;12.116;2024-01-07T10:42:40;4.70;;;1.08;;
583;SDS011;27024;54.068;12.116;2024-01-07T10:45:11;4.68;;;1.23;;
583;SDS011;27024;54.068;12.116;2024-01-07T10:47:38;3.90;;;1.15;;
583;SDS011;27024;54.068;12.116;2024-01-07T10:50:08;6.57;;;1.05;;
583;SDS011;27024;54.068;12.116;2024-01-07T10:52:39;4.72;;;0.95;;
583;SDS011;27024;54.068;12.116;2024-01-07T10:55:08;3.95;;;0.80;;
583;SDS011;27024;54.068;12.116;2024-01-07T11:00:08;2.60;;;0.80;;
583;SDS011;27024;54.068;12.116;2024-01-07T11:02:38;4.20;;;1.00;;
583;SDS011;27024;54.068;12.116;2024-01-07T11:05:23;2.50;;;0.80;;
583;SDS011;27024;54.068;12.116;2024-01-07T11:11:05;3.30;;;0.98;;
583;SDS011;27024;54.068;12.116;2024-01-07T11:13:37;4.00;;;1.00;;
583;SDS011;27024;54.068;12.116;2024-01-07T11:16:08;3.40;;;0.73;;
583;SDS011;27024;54.068;12.116;2024-01-07T11:18:41;3.30;;;0.60;;
583;SDS011;27024;54.068;12.116;2024-01-07T11:21:20;3.47;;;0.77;;
583;SDS011;27024;54.068;12.116;2024-01-07T11:23:48;2.92;;;0.57;;
583;SDS011;27024;54.068;12.116;2024-01-07T11:26:15;2.40;;;0.70;;
583;SDS011;27024;54.068;12.116;2024-01-07T11:31:21;2.40;;;0.38;;
583;SDS011;27024;54.068;12.116;2024-01-07T11:33:58;2.75;;;0.57;;
583;SDS011;27024;54.068;12.116;2024-01-07T11:36:26;5.70;;;0.70;;
583;SDS011;27024;54.068;12.116;2024-01-07T11:38:54;2.67;;;0.73;;
583;SDS011;27024;54.068;12.116;2024-01-07T11:41:21;21.20;;;4.97;;
583;SDS011;27024;54.068;12.116;2024-01-07T11:43:55;19.65;;;4.53;;
583;SDS011;27024;54.068;12.116;2024-01-07T11:46:32;7.30;;;2.25;;
583;SDS011;27024;54.068;12.116;2024-01-07T11:48:59;16.35;;;4.13;;
583;SDS011;27024;54.068;12.116;2024-01-07T11:51:28;18.58;;;4.68;;
583;SDS011;27024;54.068;12.116;2024-01-07T11:53:59;5.68;;;1.38;;
583;SDS011;27024;54.068;12.116;2024-01-07T11:56:27;4.43;;;1.00;;
583;SDS011;27024;54.068;12.116;2024-01-07T11:58:55;2.05;;;0.45;;
583;SDS011;27024;54.068;12.116;2024-01-07T12:01:23;2.22;;;0.50;;
583;SDS011;27024;54.068;12.116;2024-01-07T12:03:53;2.47;;;0.50;;
583;SDS011;27024;54.068;12.116;2024-01-07T12:06:21;1.45;;;0.40;;
583;SDS011;27024;54.068;12.116;2024-01-07T12:08:48;4.53;;;0.90;;
583;SDS011;27024;54.068;12.116;2024-01-07T12:11:15;3.17;;;1.00;;
583;SDS011;27024;54.068;12.116;2024-01-07T12:13:43;1.60;;;0.52;;
583;SDS011;27024;54.068;12.116;2024-01-07T12:16:11;1.25;;;0.40;;
583;SDS011;27024;54.068;12.116;2024-01-07T12:18:38;1.08;;;0.38;;
583;SDS011;27024;54.068;12.116;2024-01-07T12:21:07;1.20;;;0.30;;
583;SDS011;27024;54.068;12.116;2024-01-07T12:23:35;2.63;;;0.57;;
583;SDS011;27024;54.068;12.116;2024-01-07T12:26:07;2.65;;;0.43;;
583;SDS011;27024;54.068;12.116;2024-01-07T12:28:36;2.92;;;0.50;;
583;SDS011;27024;54.068;12.116;2024-01-07T12:31:06;2.05;;;0.40;;
583;SDS011;27024;54.068;12.116;2024-01-07T12:33:38;2.83;;;0.40;;
583;SDS011;27024;54.068;12.116;2024-01-07T12:38:37;4.88;;;0.50;;
583;SDS011;27024;54.068;12.116;2024-01-07T12:41:05;1.83;;;0.52;;
583;SDS011;27024;54.068;12.116;2024-01-07T12:43:33;2.95;;;0.80;;
583;SDS011;27024;54.068;12.116;2024-01-07T12:46:00;2.50;;;0.80;;
583;SDS011;27024;54.068;12.116;2024-01-07T12:48:32;2.72;;;0.60;;
583;SDS011;27024;54.068;12.116;2024-01-07T12:51:00;2.25;;;0.55;;
583;SDS011;27024;54.068;12.116;2024-01-07T12:53:28;2.65;;;0.68;;
583;SDS011;27024;54.068;12.116;2024-01-07T12:55:56;2.97;;;1.10;;
583;SDS011;27024;54.068;12.116;2024-01-07T12:58:23;1.98;;;0.80;;
583;SDS011;27024;54.068;12.116;2024-01-07T13:00:50;2.90;;;0.68;;
583;SDS011;27024;54.068;12.116;2024-01-07T13:03:18;2.08;;;0.63;;
583;SDS011;27024;54.068;12.116;2024-01-07T13:05:47;2.55;;;0.55;;
583;SDS011;27024;54.068;12.116;2024-01-07T13:08:18;2.95;;;0.82;;
583;SDS011;27024;54.068;12.116;2024-01-07T13:10:46;3.05;;;0.82;;
583;SDS011;27024;54.068;12.116;2024-01-07T13:13:13;3.53;;;0.65;;
583;SDS011;27024;54.068;12.116;2024-01-07T13:15:42;4.30;;;0.85;;
583;SDS011;27024;54.068;12.116;2024-01-07T13:18:10;3.88;;;1.13;;
583;SDS011;27024;54.068;12.116;2024-01-07T13:20:40;2.83;;;1.15;;
583;SDS011;27024;54.068;12.116;2024-01-07T13:23:08;3.90;;;0.90;;
583;SDS011;27024;54.068;12.116;2024-01-07T13:25:36;3.70;;;0.90;;
583;SDS011;27024;54.068;12.116;2024-01-07T13:28:04;4.93;;;0.75;;
583;SDS011;27024;54.068;12.116;2024-01-07T13:30:31;4.20;;;1.05;;
583;SDS011;27024;54.068;12.116;2024-01-07T13:32:59;3.83;;;1.17;;
583;SDS011;27024;54.068;12.116;2024-01-07T13:35:30;3.78;;;1.15;;
583;SDS011;27024;54.068;12.116;2024-01-07T13:37:57;3.90;;;1.00;;
583;SDS011;27024;54.068;12.116;2024-01-07T13:40:25;3.75;;;0.95;;
583;SDS011;27024;54.068;12.116;2024-01-07T13:42:54;3.28;;;1.42;;
583;SDS011;27024;54.068;12.116;2024-01-07T13:45:22;3.60;;;1.00;;
583;SDS011;27024;54.068;12.116;2024-01-07T13:47:52;2.40;;;0.80;;
583;SDS011;27024;54.068;12.116;2024-01-07T13:50:20;3.22;;;1.17;;
583;SDS011;27024;54.068;12.116;2024-01-07T13:52:48;4.45;;;1.25;;
583;SDS011;27024;54.068;12.116;2024-01-07T13:55:16;2.83;;;1.15;;
583;SDS011;27024;54.068;12.116;2024-01-07T13:57:43;3.35;;;1.08;;
583;SDS011;27024;54.068;12.116;2024-01-07T14:00:11;4.10;;;1.48;;
583;SDS011;27024;54.068;12.116;2024-01-07T14:02:46;2.95;;;1.30;;
583;SDS011;27024;54.068;12.116;2024-01-07T14:05:14;2.83;;;0.80;;
583;SDS011;27024;54.068;12.116;2024-01-07T14:07:42;2.83;;;1.00;;
583;SDS011;27024;54.068;12.116;2024-01-07T14:10:10;3.33;;;1.13;;
583;SDS011;27024;54.068;12.116;2024-01-07T14:12:38;4.57;;;1.05;;
583;SDS011;27024;54.068;12.116;2024-01-07T14:15:05;3.60;;;1.25;;
583;SDS011;27024;54.068;12.116;2024-01-07T14:17:36;2.25;;;0.70;;
583;SDS011;27024;54.068;12.116;2024-01-07T14:20:03;4.18;;;1.27;;
583;SDS011;27024;54.068;12.116;2024-01-07T14:22:31;2.40;;;1.02;;
583;SDS011;27024;54.068;12.116;2024-01-07T14:24:58;4.15;;;1.30;;
583;SDS011;27024;54.068;12.116;2024-01-07T14:27:26;2.30;;;0.80;;
583;SDS011;27024;54.068;12.116;2024-01-07T14:29:54;2.72;;;0.80;;
583;SDS011;27024;54.068;12.116;2024-01-07T14:32:23;2.58;;;1.00;;
583;SDS011;27024;54.068;12.116;2024-01-07T14:34:51;2.92;;;0.90;;
583;SDS011;27024;54.068;12.116;2024-01-07T14:37:19;4.43;;;1.10;;
583;SDS011;27024;54.068;12.116;2024-01-07T14:39:47;3.05;;;0.98;;
583;SDS011;27024;54.068;12.116;2024-01-07T14:42:15;3.75;;;1.20;;
583;SDS011;27024;54.068;12.116;2024-01-07T14:44:42;4.30;;;0.70;;
583;SDS011;27024;54.068;12.116;2024-01-07T14:47:17;2.30;;;0.82;;
583;SDS011;27024;54.068;12.116;2024-01-07T14:49:45;3.38;;;1.15;;
583;SDS011;27024;54.068;12.116;2024-01-07T14:52:12;5.40;;;1.48;;
583;SDS011;27024;54.068;12.116;2024-01-07T14:54:40;6.75;;;1.92;;
583;SDS011;27024;54.068;12.116;2024-01-07T14:57:08;3.13;;;0.90;;
583;SDS011;27024;54.068;12.116;2024-01-07T14:59:36;5.53;;;1.45;;
583;SDS011;27024;54.068;12.116;2024-01-07T15:02:04;3.88;;;1.30;;
583;SDS011;27024;54.068;12.116;2024-01-07T15:04:32;3.75;;;1.13;;
583;SDS011;27024;54.068;12.116;2024-01-07T15:07:00;4.57;;;1.50;;
583;SDS011;27024;54.068;12.116;2024-01-07T15:09:28;3.10;;;1.02;;
583;SDS011;27024;54.068;12.116;2024-01-07T15:11:55;2.63;;;0.95;;
583;SDS011;27024;54.068;12.116;2024-01-07T15:14:23;2.92;;;1.35;;
583;SDS011;27024;54.068;12.116;2024-01-07T15:16:51;3.10;;;1.05;;
583;SDS011;27024;54.068;12.116;2024-01-07T15:19:22;2.70;;;0.90;;